createdAt,value
2018-06-21T00:00:29.311Z,95565.00
2018-06-21T00:03:01.125Z,95561.00
2018-06-21T00:05:32.907Z,95564.00
2018-06-21T00:08:04.753Z,95558.00
2018-06-21T00:10:36.732Z,95558.00
2018-06-21T00:13:08.593Z,95559.00
2018-06-21T00:15:40.415Z,95559.00
2018-06-21T00:18:12.274Z,95555.00
2018-06-21T00:20:44.126Z,95556.00
2018-06-21T00:23:16.011Z,95551.00
2018-06-21T00:25:47.836Z,95544.00
2018-06-21T00:28:19.692Z,95544.00
2018-06-21T00:30:51.842Z,95538.00
2018-06-21T00:33:26.578Z,95539.00
2018-06-21T00:35:58.426Z,95536.00
2018-06-21T00:38:30.311Z,95525.00
2018-06-21T00:41:01.702Z,95525.00
2018-06-21T00:43:33.342Z,95523.00
2018-06-21T00:46:05.166Z,95523.00
2018-06-21T00:48:37.026Z,95529.00
2018-06-21T00:51:08.837Z,95525.00
2018-06-21T00:53:41.016Z,95521.00
2018-06-21T00:56:19.778Z,95525.00
2018-06-21T00:58:51.534Z,95524.00
2018-06-21T01:01:23.296Z,95521.00
2018-06-21T01:03:55.179Z,95513.00
2018-06-21T01:06:26.891Z,95514.00
2018-06-21T01:08:58.674Z,95507.00
2018-06-21T01:11:30.403Z,95507.00
2018-06-21T01:14:02.339Z,95502.00
2018-06-21T01:16:34.054Z,95501.00
2018-06-21T01:19:05.937Z,95497.00
2018-06-21T01:21:37.671Z,95494.00
2018-06-21T01:24:09.546Z,95500.00
2018-06-21T01:26:41.303Z,95497.00
2018-06-21T01:29:12.677Z,95497.00
2018-06-21T01:31:44.179Z,95498.00
2018-06-21T01:34:15.925Z,95497.00
2018-06-21T01:36:48.017Z,95497.00
2018-06-21T01:39:20.135Z,95496.00
2018-06-21T01:41:51.888Z,95499.00
2018-06-21T01:44:23.651Z,95505.00
2018-06-21T01:46:55.359Z,95505.00
2018-06-21T01:49:26.694Z,95502.00
2018-06-21T01:51:58.372Z,95504.00
2018-06-21T01:54:30.172Z,95503.00
2018-06-21T01:57:01.982Z,95507.00
2018-06-21T01:59:33.816Z,95511.00
2018-06-21T02:02:06.091Z,95512.00
2018-06-21T02:04:37.984Z,95513.00
2018-06-21T02:07:09.799Z,95512.00
2018-06-21T02:09:41.691Z,95512.00
2018-06-21T02:12:13.003Z,95509.00
2018-06-21T02:14:44.630Z,95516.00
2018-06-21T02:17:16.415Z,95516.00
2018-06-21T02:19:48.225Z,95516.00
2018-06-21T02:22:19.955Z,95518.00
2018-06-21T02:24:51.143Z,95518.00
2018-06-21T02:27:22.767Z,95511.00
2018-06-21T02:29:54.142Z,95512.00
2018-06-21T02:32:25.734Z,95506.00
2018-06-21T02:34:57.579Z,95502.00
2018-06-21T02:37:29.361Z,95502.00
2018-06-21T02:40:01.436Z,95492.00
2018-06-21T02:42:33.259Z,95495.00
2018-06-21T02:45:05.479Z,95487.00
2018-06-21T02:47:37.275Z,95492.00
2018-06-21T02:50:09.124Z,95486.00
2018-06-21T02:52:40.887Z,95479.00
2018-06-21T02:55:12.729Z,95478.00
2018-06-21T02:57:44.527Z,95481.00
2018-06-21T03:00:16.352Z,95479.00
2018-06-21T03:02:48.077Z,95476.00
2018-06-21T03:05:19.867Z,95469.00
2018-06-21T03:07:51.610Z,95463.00
2018-06-21T03:10:23.475Z,95468.00
2018-06-21T03:12:55.199Z,95464.00
2018-06-21T03:15:26.984Z,95466.00
2018-06-21T03:17:58.721Z,95469.00
2018-06-21T03:20:30.529Z,95469.00
2018-06-21T03:23:02.315Z,95467.00
2018-06-21T03:25:34.219Z,95472.00
2018-06-21T03:28:06.275Z,95469.00
2018-06-21T03:30:38.078Z,95465.00
2018-06-21T03:33:09.764Z,95468.00
2018-06-21T03:35:41.511Z,95472.00
2018-06-21T03:38:13.602Z,95475.00
2018-06-21T03:40:45.407Z,95470.00
2018-06-21T03:43:17.158Z,95473.00
2018-06-21T03:45:48.943Z,95467.00
2018-06-21T03:48:20.694Z,95463.00
2018-06-21T03:50:52.537Z,95461.00
2018-06-21T03:53:24.320Z,95466.00
2018-06-21T03:55:56.133Z,95473.00
2018-06-21T03:58:27.955Z,95471.00
2018-06-21T04:00:59.414Z,95477.00
2018-06-21T04:03:32.153Z,95472.00
2018-06-21T04:06:03.944Z,95471.00
2018-06-21T04:08:35.299Z,95473.00
2018-06-21T04:11:06.987Z,95472.00
2018-06-21T04:13:38.767Z,95469.00
2018-06-21T04:16:10.645Z,95466.00
2018-06-21T04:18:43.455Z,95466.00
2018-06-21T04:21:15.206Z,95473.00
2018-06-21T04:23:46.980Z,95472.00
2018-06-21T04:26:18.783Z,95473.00
2018-06-21T04:28:50.491Z,95475.00
2018-06-21T04:31:22.599Z,95473.00
2018-06-21T04:33:54.339Z,95476.00
2018-06-21T04:36:26.727Z,95483.00
2018-06-21T04:38:58.490Z,95486.00
2018-06-21T04:41:30.344Z,95482.00
2018-06-21T04:44:02.120Z,95479.00
2018-06-21T04:46:33.930Z,95478.00
2018-06-21T04:49:05.272Z,95481.00
2018-06-21T04:51:36.516Z,95481.00
2018-06-21T04:54:08.255Z,95481.00
2018-06-21T04:56:39.635Z,95479.00
2018-06-21T04:59:11.330Z,95477.00
2018-06-21T05:01:43.463Z,95475.00
2018-06-21T05:04:15.763Z,95475.00
2018-06-21T05:06:53.038Z,95472.00
2018-06-21T05:09:30.416Z,95475.00
2018-06-21T05:12:07.756Z,95483.00
2018-06-21T05:14:45.237Z,95474.00
2018-06-21T05:17:22.705Z,95474.00
2018-06-21T05:20:00.073Z,95464.00
2018-06-21T05:22:37.582Z,95467.00
2018-06-21T05:25:14.985Z,95467.00
2018-06-21T05:27:52.401Z,95467.00
2018-06-21T05:30:29.864Z,95468.00
2018-06-21T05:33:07.320Z,95460.00
2018-06-21T05:35:44.739Z,95463.00
2018-06-21T05:38:22.247Z,95463.00
2018-06-21T05:40:59.796Z,95463.00
2018-06-21T05:43:37.366Z,95463.00
2018-06-21T05:46:14.735Z,95462.00
2018-06-21T05:48:52.203Z,95458.00
2018-06-21T05:51:29.540Z,95457.00
2018-06-21T05:54:06.936Z,95458.00
2018-06-21T05:56:44.647Z,95456.00
2018-06-21T05:59:22.164Z,95457.00
2018-06-21T06:01:59.637Z,95449.00
2018-06-21T06:04:37.221Z,95441.00
2018-06-21T06:07:14.542Z,95444.00
2018-06-21T06:09:51.972Z,95439.00
2018-06-21T06:12:29.567Z,95438.00
2018-06-21T06:15:07.235Z,95444.00
2018-06-21T06:17:44.600Z,95438.00
2018-06-21T06:20:22.032Z,95436.00
2018-06-21T06:22:59.632Z,95441.00
2018-06-21T06:25:38.608Z,95435.00
2018-06-21T06:28:16.074Z,95433.00
2018-06-21T06:30:53.598Z,95430.00
2018-06-21T06:33:31.086Z,95434.00
2018-06-21T06:36:08.657Z,95422.00
2018-06-21T06:38:46.131Z,95423.00
2018-06-21T06:41:23.613Z,95416.00
2018-06-21T06:44:01.013Z,95414.00
2018-06-21T06:46:38.571Z,95416.00
2018-06-21T06:49:16.039Z,95406.00
2018-06-21T06:51:53.453Z,95406.00
2018-06-21T06:54:30.932Z,95400.00
2018-06-21T06:57:08.211Z,95397.00
2018-06-21T06:59:45.668Z,95395.00
2018-06-21T07:02:23.012Z,95389.00
2018-06-21T07:05:00.486Z,95393.00
2018-06-21T07:07:37.997Z,95390.00
2018-06-21T07:10:15.320Z,95385.00
2018-06-21T07:12:52.788Z,95379.00
2018-06-21T07:15:30.222Z,95386.00
2018-06-21T07:18:07.494Z,95380.00
2018-06-21T07:20:44.774Z,95374.00
2018-06-21T07:23:22.075Z,95366.00
2018-06-21T07:25:59.395Z,95364.00
2018-06-21T07:28:36.723Z,95363.00
2018-06-21T07:31:14.379Z,95358.00
2018-06-21T07:33:51.159Z,95357.00
2018-06-21T07:36:28.338Z,95353.00
2018-06-21T07:39:08.306Z,95347.00
2018-06-21T07:41:45.495Z,95343.00
2018-06-21T07:44:22.266Z,95343.00
2018-06-21T07:46:59.066Z,95336.00
2018-06-21T07:49:36.311Z,95332.00
2018-06-21T07:52:13.740Z,95326.00
2018-06-21T07:54:51.199Z,95321.00
2018-06-21T07:57:28.171Z,95321.00
2018-06-21T08:00:05.726Z,95322.00
2018-06-21T08:02:43.096Z,95313.00
2018-06-21T08:05:20.599Z,95310.00
2018-06-21T08:07:58.080Z,95304.00
2018-06-21T08:10:35.503Z,95305.00
2018-06-21T08:13:12.870Z,95297.00
2018-06-21T08:15:50.411Z,95290.00
2018-06-21T08:18:27.773Z,95294.00
2018-06-21T08:21:05.533Z,95288.00
2018-06-21T08:23:42.843Z,95286.00
2018-06-21T08:26:20.323Z,95281.00
2018-06-21T08:28:57.807Z,95283.00
2018-06-21T08:31:35.172Z,95282.00
2018-06-21T08:34:12.481Z,95281.00
2018-06-21T08:36:50.118Z,95283.00
2018-06-21T08:39:27.809Z,95277.00
2018-06-21T08:42:05.283Z,95275.00
2018-06-21T08:44:42.719Z,95263.00
2018-06-21T08:47:20.228Z,95265.00
2018-06-21T08:49:57.747Z,95256.00
2018-06-21T08:52:35.237Z,95256.00
2018-06-21T08:55:12.850Z,95253.00
2018-06-21T08:57:50.179Z,95253.00
2018-06-21T09:00:27.551Z,95250.00
2018-06-21T09:03:05.000Z,95249.00
2018-06-21T09:05:42.367Z,95246.00
2018-06-21T09:08:19.873Z,95239.00
2018-06-21T09:10:57.187Z,95242.00
2018-06-21T09:13:37.531Z,95236.00
2018-06-21T09:16:14.872Z,95231.00
2018-06-21T09:18:52.312Z,95231.00
2018-06-21T09:21:29.552Z,95220.00
2018-06-21T09:24:07.126Z,95216.00
2018-06-21T09:26:44.515Z,95213.00
2018-06-21T09:29:21.819Z,95213.00
2018-06-21T09:31:59.258Z,95212.00
2018-06-21T09:34:36.653Z,95209.00
2018-06-21T09:37:13.995Z,95204.00
2018-06-21T09:40:54.807Z,95198.00
2018-06-21T09:43:37.200Z,95195.00
2018-06-21T09:46:19.536Z,95196.00
2018-06-21T09:48:56.975Z,95193.00
2018-06-21T09:51:34.370Z,95189.00
2018-06-21T09:54:11.749Z,95192.00
2018-06-21T09:56:49.149Z,95193.00
2018-06-21T09:59:26.598Z,95186.00
2018-06-21T10:02:04.046Z,95178.00
2018-06-21T10:04:41.666Z,95176.00
2018-06-21T10:07:19.035Z,95176.00
2018-06-21T10:09:56.714Z,95167.00
2018-06-21T10:12:34.301Z,95169.00
2018-06-21T10:15:11.665Z,95165.00
2018-06-21T10:17:49.097Z,95163.00
2018-06-21T10:20:26.632Z,95155.00
2018-06-21T10:23:04.342Z,95157.00
2018-06-21T10:25:41.674Z,95157.00
2018-06-21T10:28:19.271Z,95153.00
2018-06-21T10:30:56.597Z,95154.00
2018-06-21T10:33:34.024Z,95149.00
2018-06-21T10:36:11.528Z,95140.00
2018-06-21T10:38:49.172Z,95147.00
2018-06-21T10:41:26.729Z,95143.00
2018-06-21T10:44:04.802Z,95130.00
2018-06-21T10:46:42.289Z,95132.00
2018-06-21T10:49:19.868Z,95135.00
2018-06-21T10:51:57.401Z,95125.00
2018-06-21T10:54:35.001Z,95128.00
2018-06-21T10:57:12.340Z,95120.00
2018-06-21T10:59:49.860Z,95116.00
2018-06-21T11:02:27.366Z,95107.00
2018-06-21T11:05:06.796Z,95111.00
2018-06-21T11:07:44.004Z,95110.00
2018-06-21T11:10:21.417Z,95117.00
2018-06-21T11:12:58.758Z,95106.00
2018-06-21T11:15:36.195Z,95100.00
2018-06-21T11:18:13.594Z,95101.00
2018-06-21T11:20:50.875Z,95095.00
2018-06-21T11:23:28.171Z,95090.00
2018-06-21T11:26:05.883Z,95095.00
2018-06-21T11:28:43.141Z,95090.00
2018-06-21T11:31:20.454Z,95089.00
2018-06-21T11:33:57.727Z,95075.00
2018-06-21T11:36:35.086Z,95074.00
2018-06-21T11:39:12.588Z,95089.00
2018-06-21T11:41:50.079Z,95083.00
2018-06-21T11:44:27.431Z,95070.00
2018-06-21T11:47:04.894Z,95059.00
2018-06-21T11:49:42.323Z,95053.00
2018-06-21T11:52:19.790Z,95055.00
2018-06-21T11:54:57.254Z,95049.00
2018-06-21T11:57:34.782Z,95046.00
2018-06-21T12:00:12.240Z,95044.00
2018-06-21T12:02:49.824Z,95038.00
2018-06-21T12:05:27.364Z,95039.00
2018-06-21T12:08:05.297Z,95041.00
2018-06-21T12:10:43.093Z,95034.00
2018-06-21T12:13:20.691Z,95032.00
2018-06-21T12:15:58.039Z,95032.00
2018-06-21T12:18:35.518Z,95021.00
2018-06-21T12:21:13.020Z,95015.00
2018-06-21T12:23:50.524Z,95018.00
2018-06-21T12:26:33.383Z,95015.00
2018-06-21T12:29:11.067Z,95013.00
2018-06-21T12:31:48.512Z,95005.00
2018-06-21T12:34:28.955Z,95004.00
2018-06-21T12:37:06.684Z,95004.00
2018-06-21T12:39:44.158Z,95006.00
2018-06-21T12:42:22.477Z,95003.00
2018-06-21T12:45:00.016Z,95005.00
2018-06-21T12:47:37.489Z,94987.00
2018-06-21T12:50:15.884Z,94999.00
2018-06-21T12:52:53.230Z,94989.00
2018-06-21T12:55:30.688Z,94989.00
2018-06-21T12:58:08.188Z,94993.00
2018-06-21T13:00:45.695Z,94984.00
2018-06-21T13:03:23.145Z,94978.00
2018-06-21T13:06:00.639Z,94987.00
2018-06-21T13:08:54.522Z,94981.00
2018-06-21T13:12:48.462Z,94980.00
2018-06-21T13:15:25.878Z,94957.00
2018-06-21T13:18:03.401Z,94967.00
2018-06-21T13:20:40.894Z,94957.00
2018-06-21T13:23:18.461Z,94972.00
2018-06-21T13:25:55.978Z,94971.00
2018-06-21T13:28:33.331Z,94977.00
2018-06-21T13:31:11.636Z,94983.00
2018-06-21T13:33:49.754Z,94978.00
2018-06-21T13:36:27.295Z,94999.00
2018-06-21T13:39:06.432Z,94997.00
2018-06-21T13:41:44.034Z,94989.00
2018-06-21T13:44:21.834Z,95001.00
2018-06-21T13:47:00.822Z,94996.00
2018-06-21T13:49:38.405Z,94979.00
2018-06-21T13:52:16.039Z,94974.00
2018-06-21T13:54:53.758Z,94980.00
2018-06-21T13:57:31.816Z,94991.00
2018-06-21T14:00:09.773Z,94999.00
2018-06-21T14:02:47.452Z,95015.00
2018-06-21T14:05:25.158Z,95032.00
2018-06-21T14:08:03.009Z,95059.00
2018-06-21T14:10:42.077Z,95107.00
2018-06-21T14:13:20.282Z,95109.00
2018-06-21T14:15:57.862Z,95104.00
2018-06-21T14:18:35.366Z,95114.00
2018-06-21T14:21:12.944Z,95085.00
2018-06-21T14:23:50.691Z,95074.00
2018-06-21T14:26:28.159Z,95052.00
2018-06-21T14:29:06.051Z,95059.00
2018-06-21T14:31:43.582Z,95060.00
2018-06-21T14:34:21.645Z,95040.00
2018-06-21T14:36:59.179Z,95043.00
2018-06-21T14:39:36.688Z,95047.00
2018-06-21T14:42:14.166Z,95053.00
2018-06-21T14:44:51.562Z,95050.00
2018-06-21T14:47:28.939Z,95025.00
2018-06-21T14:50:06.341Z,95033.00
2018-06-21T14:52:43.842Z,95062.00
2018-06-21T14:55:21.298Z,95061.00
2018-06-21T14:57:58.743Z,95068.00
2018-06-21T15:00:36.017Z,95056.00
2018-06-21T15:03:13.753Z,95065.00
2018-06-21T15:05:51.163Z,95075.00
2018-06-21T15:08:28.735Z,95074.00
2018-06-21T15:11:06.267Z,95074.00
2018-06-21T15:13:47.697Z,95069.00
2018-06-21T15:16:25.188Z,95071.00
2018-06-21T15:19:02.455Z,95066.00
2018-06-21T15:21:39.937Z,95056.00
2018-06-21T15:24:17.332Z,95034.00
2018-06-21T15:26:54.891Z,95037.00
2018-06-21T15:29:32.536Z,95040.00
2018-06-21T15:32:10.137Z,95041.00
2018-06-21T15:34:47.576Z,95043.00
2018-06-21T15:37:24.977Z,95041.00
2018-06-21T15:40:02.753Z,95046.00
2018-06-21T15:42:40.017Z,95048.00
2018-06-21T15:45:17.585Z,95064.00
2018-06-21T15:47:55.101Z,95057.00
2018-06-21T15:50:32.601Z,95066.00
2018-06-21T15:53:10.094Z,95061.00
2018-06-21T15:55:47.730Z,95056.00
2018-06-21T15:58:25.198Z,95060.00
2018-06-21T16:01:02.929Z,95062.00
2018-06-21T16:03:41.630Z,95063.00
2018-06-21T16:06:19.137Z,95065.00
2018-06-21T16:08:56.604Z,95072.00
2018-06-21T16:11:33.691Z,95063.00
2018-06-21T16:14:11.070Z,95067.00
2018-06-21T16:16:48.574Z,95068.00
2018-06-21T16:19:25.941Z,95075.00
2018-06-21T16:22:03.460Z,95062.00
2018-06-21T16:24:40.924Z,95063.00
2018-06-21T16:27:19.482Z,95074.00
2018-06-21T16:29:56.839Z,95076.00
2018-06-21T16:32:34.315Z,95067.00
2018-06-21T16:35:11.719Z,95067.00
2018-06-21T16:37:49.395Z,95078.00
2018-06-21T16:40:27.106Z,95072.00
2018-06-21T16:43:04.443Z,95074.00
2018-06-21T16:45:41.996Z,95086.00
2018-06-21T16:48:19.672Z,95090.00
2018-06-21T16:50:57.050Z,95084.00
2018-06-21T16:53:34.867Z,95079.00
2018-06-21T16:56:12.236Z,95071.00
2018-06-21T16:58:49.857Z,95081.00
2018-06-21T17:01:27.396Z,95087.00
2018-06-21T17:04:04.811Z,95083.00
2018-06-21T17:06:42.499Z,95095.00
2018-06-21T17:09:19.864Z,95101.00
2018-06-21T17:11:57.341Z,95114.00
2018-06-21T17:14:34.919Z,95125.00
2018-06-21T17:17:12.428Z,95125.00
2018-06-21T17:19:50.059Z,95122.00
2018-06-21T17:22:27.507Z,95128.00
2018-06-21T17:25:05.238Z,95131.00
2018-06-21T17:27:43.430Z,95127.00
2018-06-21T17:30:21.041Z,95127.00
2018-06-21T17:32:58.458Z,95115.00
2018-06-21T17:35:35.883Z,95123.00
2018-06-21T17:38:15.220Z,95128.00
2018-06-21T17:40:53.615Z,95140.00
2018-06-21T17:43:31.231Z,95137.00
2018-06-21T17:46:08.689Z,95131.00
2018-06-21T17:48:46.448Z,95130.00
2018-06-21T17:51:24.219Z,95139.00
2018-06-21T17:54:01.638Z,95144.00
2018-06-21T17:56:39.147Z,95143.00
2018-06-21T17:59:16.697Z,95142.00
2018-06-21T18:01:54.255Z,95141.00
2018-06-21T18:04:31.717Z,95138.00
2018-06-21T18:07:09.169Z,95127.00
2018-06-21T18:09:47.038Z,95132.00
2018-06-21T18:12:24.744Z,95144.00
2018-06-21T18:15:04.000Z,95137.00
2018-06-21T18:17:41.750Z,95150.00
2018-06-21T18:20:19.227Z,95161.00
2018-06-21T18:22:56.656Z,95167.00
2018-06-21T18:25:34.051Z,95175.00
2018-06-21T18:28:11.602Z,95178.00
2018-06-21T18:30:49.389Z,95183.00
2018-06-21T18:33:27.099Z,95183.00
2018-06-21T18:36:04.747Z,95188.00
2018-06-21T18:38:45.304Z,95194.00
2018-06-21T18:41:22.839Z,95204.00
2018-06-21T18:44:00.301Z,95213.00
2018-06-21T18:46:38.096Z,95204.00
2018-06-21T18:49:15.835Z,95200.00
2018-06-21T18:51:53.264Z,95209.00
2018-06-21T18:54:30.804Z,95228.00
2018-06-21T18:57:08.423Z,95234.00
2018-06-21T18:59:45.940Z,95234.00
2018-06-21T19:02:23.303Z,95227.00
2018-06-21T19:05:00.913Z,95231.00
2018-06-21T19:07:42.015Z,95232.00
2018-06-21T19:10:24.643Z,95248.00
2018-06-21T19:13:02.140Z,95292.00
2018-06-21T19:15:40.780Z,95310.00
2018-06-21T19:18:18.441Z,95309.00
2018-06-21T19:20:56.407Z,95308.00
2018-06-21T19:23:34.611Z,95312.00
2018-06-21T19:26:12.190Z,95314.00
2018-06-21T19:28:49.810Z,95328.00
2018-06-21T19:31:29.920Z,95327.00
2018-06-21T19:34:07.638Z,95335.00
2018-06-21T19:36:45.298Z,95345.00
2018-06-21T19:39:22.978Z,95334.00
2018-06-21T19:42:00.483Z,95333.00
2018-06-21T19:44:38.020Z,95331.00
2018-06-21T19:47:15.465Z,95328.00
2018-06-21T19:49:52.905Z,95330.00
2018-06-21T19:52:30.975Z,95338.00
2018-06-21T19:55:08.591Z,95344.00
2018-06-21T19:57:46.018Z,95339.00
2018-06-21T20:00:23.707Z,95340.00
2018-06-21T20:03:01.888Z,95346.00
2018-06-21T20:05:39.339Z,95337.00
2018-06-21T20:08:17.015Z,95323.00
2018-06-21T20:11:00.507Z,95341.00
2018-06-21T20:13:48.259Z,95352.00
2018-06-21T20:16:25.731Z,95354.00
2018-06-21T20:19:13.987Z,95355.00
2018-06-21T20:21:51.386Z,95347.00
2018-06-21T20:24:28.876Z,95358.00
2018-06-21T20:27:06.398Z,95351.00
2018-06-21T20:29:43.944Z,95354.00
2018-06-21T20:32:22.287Z,95349.00
2018-06-21T20:34:59.952Z,95343.00
2018-06-21T20:37:37.264Z,95343.00
2018-06-21T20:40:15.297Z,95343.00
2018-06-21T20:42:52.676Z,95342.00
2018-06-21T20:45:30.084Z,95343.00
2018-06-21T20:48:07.484Z,95345.00
2018-06-21T20:50:45.297Z,95344.00
2018-06-21T20:53:22.765Z,95344.00
2018-06-21T20:56:00.144Z,95333.00
2018-06-21T20:58:37.448Z,95330.00
2018-06-21T21:01:15.177Z,95327.00
2018-06-21T21:03:52.405Z,95331.00
2018-06-21T21:06:30.016Z,95323.00
2018-06-21T21:09:08.830Z,95332.00
2018-06-21T21:11:46.297Z,95335.00
2018-06-21T21:14:23.605Z,95341.00
2018-06-21T21:17:01.155Z,95345.00
2018-06-21T21:19:38.507Z,95351.00
2018-06-21T21:22:16.040Z,95356.00
2018-06-21T21:24:53.448Z,95349.00
2018-06-21T21:27:30.826Z,95345.00
2018-06-21T21:30:09.620Z,95351.00
2018-06-21T21:32:46.907Z,95344.00
2018-06-21T21:35:24.324Z,95346.00
2018-06-21T21:38:01.772Z,95349.00
2018-06-21T21:40:39.220Z,95359.00
2018-06-21T21:43:16.524Z,95366.00
2018-06-21T21:45:53.733Z,95377.00
2018-06-21T21:48:30.984Z,95389.00
2018-06-21T21:51:08.385Z,95388.00
2018-06-21T21:53:45.626Z,95388.00
2018-06-21T21:56:23.145Z,95398.00
2018-06-21T21:59:00.521Z,95402.00
2018-06-21T22:01:37.785Z,95404.00
2018-06-21T22:04:15.768Z,95407.00
2018-06-21T22:06:53.157Z,95407.00
2018-06-21T22:09:30.784Z,95408.00
2018-06-21T22:12:09.023Z,95420.00
2018-06-21T22:14:46.524Z,95414.00
2018-06-21T22:17:24.044Z,95410.00
2018-06-21T22:20:01.605Z,95412.00
2018-06-21T22:22:38.959Z,95430.00
2018-06-21T22:25:16.632Z,95433.00
2018-06-21T22:27:53.985Z,95436.00
2018-06-21T22:30:31.609Z,95423.00
2018-06-21T22:33:08.936Z,95424.00
2018-06-21T22:35:46.158Z,95433.00
2018-06-21T22:38:23.531Z,95436.00
2018-06-21T22:41:01.053Z,95433.00
2018-06-21T22:43:39.090Z,95428.00
2018-06-21T22:46:16.678Z,95436.00
2018-06-21T22:48:54.051Z,95442.00
2018-06-21T22:51:31.674Z,95451.00
2018-06-21T22:54:09.466Z,95455.00
2018-06-21T22:56:46.891Z,95447.00
2018-06-21T22:59:24.251Z,95436.00
2018-06-21T23:02:01.654Z,95443.00
2018-06-21T23:04:38.971Z,95440.00
2018-06-21T23:07:16.496Z,95447.00
2018-06-21T23:09:54.044Z,95447.00
2018-06-21T23:12:31.307Z,95453.00
2018-06-21T23:15:08.795Z,95451.00
2018-06-21T23:17:46.205Z,95458.00
2018-06-21T23:20:23.592Z,95451.00
2018-06-21T23:23:00.973Z,95440.00
2018-06-21T23:25:38.537Z,95450.00
2018-06-21T23:28:15.951Z,95444.00
2018-06-21T23:30:53.315Z,95450.00
2018-06-21T23:33:30.718Z,95458.00
2018-06-21T23:36:09.018Z,95464.00
2018-06-21T23:38:46.435Z,95474.00
2018-06-21T23:41:23.672Z,95478.00
2018-06-21T23:44:01.077Z,95486.00
2018-06-21T23:46:38.556Z,95489.00
2018-06-21T23:49:16.054Z,95495.00
2018-06-21T23:51:53.323Z,95488.00
2018-06-21T23:54:30.653Z,95507.00
2018-06-21T23:57:07.892Z,95511.00
2018-06-21T23:59:45.138Z,95500.00
